Time;durP1;ratioP1;P1;durP2;ratioP2;P2;SDS_P1;SDS_P2;PMS_P1;PMS_P2;Temp;Humidity;BMP_temperature;BMP_pressure;BME280_temperature;BME280_humidity;BME280_pressure;Samples;Min_cycle;Max_cycle;Signal;HPM_P1;HPM_P2
2023/01/28 00:00:35;;;;;;;3.13;3.03;;;;;;;1.55;100.00;102212.53;6172474;23;20025;-76
2023/01/28 00:03:01;;;;;;;3.30;3.10;;;;;;;1.38;100.00;102188.22;6140353;23;20033;-77
2023/01/28 00:05:28;;;;;;;3.22;3.13;;;;;;;1.71;100.00;102243.75;6152434;23;20013;-76
2023/01/28 00:07:56;;;;;;;3.90;3.60;;;;;;;1.31;100.00;102189.03;6145736;23;20005;-76
2023/01/28 00:10:23;;;;;;;2.97;2.88;;;;;;;1.36;100.00;102214.09;6167891;23;20096;-75
2023/01/28 00:12:49;;;;;;;9.35;3.22;;;;;;;1.10;100.00;102200.88;6142395;23;20033;-76
2023/01/28 00:15:16;;;;;;;3.10;3.00;;;;;;;1.30;100.00;102241.59;6142531;23;20031;-77
2023/01/28 00:17:42;;;;;;;3.20;3.00;;;;;;;1.58;100.00;102276.38;6125673;23;20070;-76
2023/01/28 00:20:09;;;;;;;3.78;3.58;;;;;;;1.56;100.00;102275.50;6149826;23;20037;-75
2023/01/28 00:22:36;;;;;;;2.90;2.80;;;;;;;1.18;100.00;102219.03;6119032;23;20017;-78
2023/01/28 00:25:02;;;;;;;13.75;13.05;;;;;;;1.29;100.00;102250.22;5993979;23;20316;-78
2023/01/28 00:27:29;;;;;;;2.80;2.70;;;;;;;1.34;100.00;102248.53;6142326;23;20025;-77
2023/01/28 00:29:56;;;;;;;3.38;3.17;;;;;;;1.44;100.00;102263.28;6150531;23;20471;-77
2023/01/28 00:32:22;;;;;;;3.38;3.17;;;;;;;0.76;100.00;102140.16;6136407;23;20039;-75
2023/01/28 00:34:48;;;;;;;3.33;3.22;;;;;;;1.09;100.00;102201.72;6140431;23;20012;-75
2023/01/28 00:37:15;;;;;;;4.00;3.72;;;;;;;1.17;100.00;102207.84;6138356;23;20092;-74
2023/01/28 00:39:41;;;;;;;3.15;3.00;;;;;;;1.28;100.00;102213.13;6145136;23;20029;-75
2023/01/28 00:42:08;;;;;;;3.05;2.85;;;;;;;0.78;100.00;102113.50;6120278;23;20021;-75
2023/01/28 00:44:35;;;;;;;3.53;3.22;;;;;;;1.45;100.00;102239.19;6171378;23;20030;-76
2023/01/28 00:47:01;;;;;;;3.55;3.33;;;;;;;1.13;100.00;102210.38;6144896;23;20062;-75
2023/01/28 00:49:27;;;;;;;3.17;3.08;;;;;;;0.90;100.00;102185.16;6151599;23;20669;-75
2023/01/28 00:51:54;;;;;;;2.80;2.70;;;;;;;0.79;100.00;102177.25;6144188;23;20025;-77
2023/01/28 00:54:20;;;;;;;4.45;4.25;;;;;;;-0.61;100.00;101950.84;6142342;23;20534;-76
2023/01/28 00:56:47;;;;;;;3.63;3.30;;;;;;;0.54;100.00;102159.69;6170028;23;20032;-77
2023/01/28 00:59:14;;;;;;;3.58;3.40;;;;;;;1.08;100.00;102241.34;6144047;23;20009;-77
2023/01/28 01:01:40;;;;;;;3.70;3.50;;;;;;;0.88;100.00;102196.28;6169705;23;20028;-77
2023/01/28 01:04:07;;;;;;;4.28;3.97;;;;;;;0.45;100.00;102133.75;6116551;23;20094;-77
2023/01/28 01:06:36;;;;;;;3.33;3.13;;;;;;;1.17;100.00;102238.88;6174694;23;20616;-75
2023/01/28 01:09:04;;;;;;;3.78;3.47;;;;;;;0.70;100.00;102155.59;6142172;23;20013;-75
2023/01/28 01:11:34;;;;;;;3.30;3.20;;;;;;;1.18;100.00;102227.69;6135088;23;20017;-78
2023/01/28 01:14:04;;;;;;;4.43;4.13;;;;;;;1.37;100.00;102258.91;6171509;23;20628;-78
2023/01/28 01:16:32;;;;;;;3.42;3.28;;;;;;;0.90;100.00;102197.19;6121541;23;20032;-77
2023/01/28 01:18:59;;;;;;;3.60;3.33;;;;;;;0.49;100.00;102110.56;6170880;23;20095;-78
2023/01/28 01:21:28;;;;;;;3.67;3.47;;;;;;;1.50;100.00;102280.59;6125964;23;20076;-76
2023/01/28 01:23:55;;;;;;;4.63;4.25;;;;;;;1.51;100.00;102282.34;6163488;23;20022;-75
2023/01/28 01:26:22;;;;;;;3.40;3.20;;;;;;;0.81;100.00;102171.25;6150405;23;20029;-76
2023/01/28 01:28:50;;;;;;;3.60;3.40;;;;;;;0.02;100.00;102028.25;6147621;23;20060;-76
2023/01/28 01:31:19;;;;;;;3.90;3.70;;;;;;;0.93;100.00;102194.63;6174398;23;20020;-75
2023/01/28 01:33:47;;;;;;;3.30;3.13;;;;;;;1.10;100.00;102218.97;6113347;23;20662;-77
2023/01/28 01:36:16;;;;;;;4.18;3.88;;;;;;;0.98;100.00;102205.88;6169018;23;20108;-76
2023/01/28 01:38:42;;;;;;;3.45;3.28;;;;;;;1.18;100.00;102242.31;6143545;23;20029;-76
2023/01/28 01:41:20;;;;;;;4.07;3.75;;;;;;;1.42;100.00;102292.59;6173924;23;20033;-75
2023/01/28 01:43:56;;;;;;;3.42;3.20;;;;;;;1.32;100.00;102271.81;6113935;23;20017;-76
2023/01/28 01:46:31;;;;;;;3.72;3.53;;;;;;;1.21;100.00;102251.84;6171942;23;20081;-75
2023/01/28 01:49:05;;;;;;;4.10;3.80;;;;;;;1.35;100.00;102269.25;6138729;23;20025;-76
2023/01/28 01:51:33;;;;;;;3.28;3.08;;;;;;;0.66;100.00;102164.16;6169985;23;20628;-75
2023/01/28 01:54:00;;;;;;;5.00;4.57;;;;;;;1.36;100.00;102290.78;6113260;23;20017;-77
2023/01/28 01:56:33;;;;;;;3.95;3.75;;;;;;;0.87;100.00;102210.94;6165941;23;20029;-75
2023/01/28 01:59:00;;;;;;;6.97;4.03;;;;;;;0.83;100.00;102210.88;6108295;23;20056;-74
2023/01/28 02:01:29;;;;;;;4.70;4.30;;;;;;;0.74;100.00;102203.88;6167308;23;20028;-76
2023/01/28 02:04:06;;;;;;;3.13;3.03;;;;;;;1.32;100.00;102313.19;6138708;23;20019;-77
2023/01/28 02:06:35;;;;;;;3.13;3.03;;;;;;;1.27;100.00;102283.81;6170640;23;20037;-77
2023/01/28 02:09:02;;;;;;;2.83;2.72;;;;;;;0.52;100.00;102163.97;6143988;23;20027;-75
2023/01/28 02:11:32;;;;;;;4.07;3.88;;;;;;;0.89;100.00;102239.41;6116080;23;20473;-75
2023/01/28 02:14:03;;;;;;;5.57;3.40;;;;;;;1.22;100.00;102292.34;6172275;23;20032;-75
2023/01/28 02:16:31;;;;;;;3.30;3.10;;;;;;;-0.56;100.00;101999.94;6117518;23;20021;-75
2023/01/28 02:19:00;;;;;;;3.53;3.33;;;;;;;0.62;100.00;102203.72;6164701;23;21697;-75
2023/01/28 02:21:55;;;;;;;2.72;2.63;;;;;;;0.72;100.00;102234.88;6143395;23;20093;-76
2023/01/28 02:24:33;;;;;;;3.00;2.90;;;;;;;1.13;100.00;102299.16;6147084;23;20132;-77
2023/01/28 02:27:15;;;;;;;3.60;3.30;;;;;;;1.13;100.00;102299.16;6137580;23;20013;-75
2023/01/28 02:29:51;;;;;;;3.55;3.35;;;;;;;0.72;100.00;102242.63;6113548;23;20017;-77
2023/01/28 02:32:52;;;;;;;3.22;3.03;;;;;;;-0.92;100.00;101965.03;6143079;23;20024;-76
2023/01/28 02:35:32;;;;;;;2.92;2.83;;;;;;;1.17;100.00;102306.09;6134727;23;20075;-76
2023/01/28 02:38:11;;;;;;;2.88;2.78;;;;;;;0.98;100.00;102274.00;6144201;23;20008;-77
2023/01/28 02:41:00;;;;;;;3.22;3.03;;;;;;;1.16;100.00;102306.97;6138168;23;20029;-76
2023/01/28 02:43:39;;;;;;;2.95;2.85;;;;;;;0.71;100.00;102232.28;6140217;23;20025;-76
2023/01/28 02:49:10;;;;;;;2.83;2.72;;;;;;;0.01;100.00;102121.97;6142384;23;20731;-76
2023/01/28 02:51:47;;;;;;;3.13;3.03;;;;;;;0.78;100.00;102262.50;6146051;23;20466;-76
2023/01/28 02:54:20;;;;;;;4.32;4.05;;;;;;;0.61;100.00;102233.00;6143586;23;20037;-77
2023/01/28 02:57:14;;;;;;;2.95;2.85;;;;;;;-0.31;100.00;102073.34;6134493;23;20725;-75
2023/01/28 02:59:50;;;;;;;3.03;2.92;;;;;;;0.94;100.00;102289.41;6127385;23;20175;-76
2023/01/28 03:02:53;;;;;;;4.35;4.05;;;;;;;1.11;100.00;102312.91;6117276;23;20028;-75
2023/01/28 03:05:30;;;;;;;3.60;3.40;;;;;;;0.70;100.00;102244.31;6143407;23;20732;-76
2023/01/28 03:07:57;;;;;;;3.55;3.35;;;;;;;1.12;100.00;102320.72;6160078;23;20329;-77
2023/01/28 03:10:26;;;;;;;3.92;3.72;;;;;;;0.76;100.00;102267.66;6136222;23;20025;-76
2023/01/28 03:38:47;;;;;;;2.80;2.70;;;;;;;0.43;100.00;102200.03;6143261;23;20090;-75
2023/01/28 03:41:21;;;;;;;4.63;4.32;;;;;;;1.13;100.00;102319.84;6177488;23;20047;-75
2023/01/28 03:43:48;;;;;;;4.40;3.13;;;;;;;0.92;100.00;102286.84;6118028;23;20095;-77
2023/01/28 03:46:15;;;;;;;3.33;3.13;;;;;;;1.10;100.00;102317.22;6145862;23;20020;-76
2023/01/28 03:48:42;;;;;;;3.85;3.65;;;;;;;0.70;100.00;102249.50;6147032;23;20032;-76
2023/01/28 03:51:08;;;;;;;4.05;3.75;;;;;;;-0.10;100.00;102119.25;6149210;23;20032;-78
2023/01/28 03:53:35;;;;;;;5.10;3.92;;;;;;;0.31;100.00;102187.81;6120827;23;20090;-77
2023/01/28 03:56:01;;;;;;;5.50;4.60;;;;;;;0.49;100.00;102225.94;6150821;23;20027;-76
2023/01/28 04:01:26;;;;;;;4.78;4.38;;;;;;;0.87;100.00;102285.88;6124867;23;20032;-76
2023/01/28 04:03:53;;;;;;;3.88;3.67;;;;;;;0.49;100.00;102239.72;6141278;23;20012;-75
2023/01/28 04:06:19;;;;;;;3.95;3.70;;;;;;;0.72;100.00;102277.91;6172511;23;20033;-77
2023/01/28 04:08:51;;;;;;;4.40;4.00;;;;;;;0.21;100.00;102196.28;6143356;23;20037;-77
2023/01/28 04:11:20;;;;;;;4.85;4.45;;;;;;;-0.38;100.00;102086.13;6146222;23;20104;-75
2023/01/28 04:13:47;;;;;;;4.50;4.10;;;;;;;-0.01;100.00;102170.13;6171278;23;20036;-76
2023/01/28 04:16:16;;;;;;;4.55;3.97;;;;;;;0.18;100.00;102189.31;6121822;23;20539;-76
2023/01/28 04:18:43;;;;;;;4.50;4.10;;;;;;;1.04;100.00;102335.22;6129906;23;20153;-76
2023/01/28 04:21:11;;;;;;;4.90;4.18;;;;;;;0.99;100.00;102326.53;6169041;23;20049;-75
2023/01/28 04:23:37;;;;;;;4.10;3.90;;;;;;;0.75;100.00;102298.66;6145209;23;20093;-77
2023/01/28 04:26:04;;;;;;;4.00;3.65;;;;;;;1.00;100.00;102341.19;6168605;23;20022;-75
2023/01/28 04:28:30;;;;;;;3.60;3.38;;;;;;;0.53;100.00;102276.78;6142606;23;20031;-77
2023/01/28 04:30:57;;;;;;;4.07;3.47;;;;;;;0.49;100.00;102303.44;6149991;23;20080;-77
2023/01/28 04:33:23;;;;;;;5.35;3.80;;;;;;;0.52;100.00;102264.72;6117938;23;20025;-75
2023/01/28 04:35:50;;;;;;;4.90;4.50;;;;;;;0.70;100.00;102303.75;6115905;23;20510;-75
2023/01/28 04:38:16;;;;;;;5.80;3.50;;;;;;;-0.28;100.00;102147.34;6145270;23;20099;-77
2023/01/28 04:40:42;;;;;;;4.78;3.65;;;;;;;0.03;100.00;102197.72;6144302;23;20028;-75
2023/01/28 04:43:09;;;;;;;3.83;3.63;;;;;;;0.38;100.00;102267.09;6172473;23;20091;-78
2023/01/28 04:45:35;;;;;;;2.90;2.80;;;;;;;0.52;100.00;102290.53;6140347;23;20760;-75
2023/01/28 04:48:01;;;;;;;4.35;4.05;;;;;;;0.63;100.00;102324.31;6169330;23;20020;-75
2023/01/28 04:50:28;;;;;;;3.78;3.47;;;;;;;0.85;100.00;102367.69;6145213;23;20020;-75
2023/01/28 04:52:54;;;;;;;3.85;3.60;;;;;;;0.49;100.00;102308.59;6167991;23;20020;-76
2023/01/28 04:55:21;;;;;;;4.15;3.85;;;;;;;0.85;100.00;102365.13;6138961;23;20597;-75
2023/01/28 04:57:47;;;;;;;3.53;3.33;;;;;;;0.38;100.00;102288.63;6171516;23;20024;-76
2023/01/28 05:00:14;;;;;;;4.30;4.00;;;;;;;-0.33;100.00;102187.69;6142734;23;20021;-76
2023/01/28 05:02:41;;;;;;;5.63;3.67;;;;;;;0.82;100.00;102357.31;6163288;23;20081;-75
2023/01/28 05:05:07;;;;;;;4.18;3.88;;;;;;;0.24;100.00;102253.09;6116895;23;20025;-75
2023/01/28 05:07:34;;;;;;;3.92;3.70;;;;;;;0.17;100.00;102247.84;6142423;23;20042;-76
2023/01/28 05:10:01;;;;;;;3.88;3.67;;;;;;;0.79;100.00;102352.09;6136839;23;20090;-76
2023/01/28 05:12:29;;;;;;;4.93;4.57;;;;;;;0.18;100.00;102249.59;6144609;23;20029;-75
2023/01/28 05:14:55;;;;;;;3.80;3.55;;;;;;;0.78;100.00;102361.59;6167768;23;20689;-75
2023/01/28 05:17:21;;;;;;;3.03;2.92;;;;;;;-1.01;100.00;102052.47;6117929;23;20498;-73
2023/01/28 05:19:48;;;;;;;3.40;3.20;;;;;;;-1.06;100.00;102054.97;6169168;23;20099;-77
2023/01/28 05:22:14;;;;;;;4.15;3.75;;;;;;;-0.29;100.00;102192.03;6144202;23;20712;-77
2023/01/28 05:24:41;;;;;;;3.13;2.92;;;;;;;0.36;100.00;102292.00;6142658;23;20017;-74
2023/01/28 05:27:07;;;;;;;4.63;4.25;;;;;;;0.10;100.00;102239.97;6116671;23;20021;-74
2023/01/28 05:29:34;;;;;;;3.97;3.03;;;;;;;0.10;100.00;102255.47;6164667;23;20040;-74
2023/01/28 05:32:00;;;;;;;4.28;3.97;;;;;;;0.56;100.00;102323.31;6144936;23;20025;-75
2023/01/28 05:34:27;;;;;;;3.90;3.50;;;;;;;0.10;100.00;102237.38;6143517;23;20080;-76
2023/01/28 05:36:53;;;;;;;3.83;3.47;;;;;;;0.72;100.00;102343.41;6134005;23;20091;-77
2023/01/28 05:39:19;;;;;;;4.32;3.95;;;;;;;0.30;100.00;102269.56;6117939;23;20655;-75
2023/01/28 05:41:46;;;;;;;4.38;4.10;;;;;;;-1.14;100.00;102027.31;6148566;23;20113;-75
2023/01/28 05:44:12;;;;;;;3.75;3.55;;;;;;;-0.57;100.00;102113.34;6170202;23;20020;-74
2023/01/28 05:46:44;;;;;;;3.53;3.33;;;;;;;0.76;100.00;102344.28;6142722;23;20025;-75
2023/01/28 05:49:12;;;;;;;5.07;4.73;;;;;;;0.73;100.00;102347.72;6148008;23;20062;-76
2023/01/28 05:51:39;;;;;;;3.17;3.03;;;;;;;0.52;100.00;102324.13;6171444;23;20103;-75
2023/01/28 05:54:07;;;;;;;3.58;3.28;;;;;;;-0.24;100.00;102211.03;6105111;23;20117;-76
2023/01/28 05:56:35;;;;;;;3.83;3.63;;;;;;;0.29;100.00;102314.31;6162680;23;20025;-75
2023/01/28 05:59:02;;;;;;;11.05;4.03;;;;;;;0.02;100.00;102257.03;6138064;23;20028;-75
2023/01/28 06:01:29;;;;;;;4.85;3.72;;;;;;;-0.04;100.00;102247.47;6137090;23;20021;-75
2023/01/28 06:03:55;;;;;;;4.13;3.42;;;;;;;0.34;100.00;102337.59;6152090;23;20017;-76
2023/01/28 06:06:22;;;;;;;3.92;3.72;;;;;;;-0.49;100.00;102177.09;6141779;23;20080;-75
2023/01/28 06:08:48;;;;;;;3.58;3.33;;;;;;;0.54;100.00;102345.69;6165622;23;20037;-75
2023/01/28 06:11:15;;;;;;;3.17;3.08;;;;;;;0.52;100.00;102356.00;6133420;23;20618;-76
2023/01/28 06:13:42;;;;;;;2.97;2.85;;;;;;;0.47;98.63;102343.88;6126271;23;20024;-76
2023/01/28 06:16:09;;;;;;;3.33;3.13;;;;;;;0.07;97.59;102270.91;6135636;23;20026;-75
2023/01/28 06:18:35;;;;;;;3.75;3.55;;;;;;;0.50;97.25;102354.22;6140366;23;20041;-76
2023/01/28 06:21:02;;;;;;;3.70;3.50;;;;;;;0.11;97.01;102273.56;6141588;23;20013;-76
2023/01/28 06:23:28;;;;;;;4.07;3.88;;;;;;;0.27;96.27;102297.91;6152176;23;20385;-77
2023/01/28 06:25:55;;;;;;;5.10;4.65;;;;;;;0.04;96.02;102255.34;6166539;23;20028;-73
2023/01/28 06:28:23;;;;;;;4.35;3.47;;;;;;;0.27;95.69;102290.16;6142800;23;20032;-76
2023/01/28 06:30:51;;;;;;;3.35;3.10;;;;;;;0.35;95.88;102311.81;6143962;23;20001;-74
2023/01/28 06:33:18;;;;;;;3.83;3.63;;;;;;;0.67;95.43;102360.53;6134284;23;20029;-75
2023/01/28 06:35:45;;;;;;;3.55;3.30;;;;;;;0.64;95.23;102370.81;6145334;23;20037;-74
2023/01/28 06:38:11;;;;;;;3.80;3.60;;;;;;;-0.90;92.73;102089.59;6141163;23;20029;-76
2023/01/28 06:40:38;;;;;;;4.05;3.47;;;;;;;-0.34;92.24;102175.59;6137430;23;20036;-76
2023/01/28 06:43:05;;;;;;;3.33;3.13;;;;;;;0.38;92.45;102293.81;6145378;23;20028;-74
2023/01/28 06:45:32;;;;;;;3.53;3.35;;;;;;;0.63;92.69;102329.47;6114315;23;20024;-76
2023/01/28 06:47:58;;;;;;;3.20;3.08;;;;;;;0.35;93.28;102283.41;6168631;23;20394;-75
2023/01/28 06:50:25;;;;;;;4.13;3.80;;;;;;;0.21;93.47;102282.31;6141553;23;20029;-76
2023/01/28 06:52:51;;;;;;;4.25;3.95;;;;;;;0.56;94.19;102383.63;6132397;23;20044;-74
2023/01/28 06:55:18;;;;;;;4.03;3.83;;;;;;;0.37;94.39;102338.53;6137412;23;20044;-75
2023/01/28 06:57:44;;;;;;;3.50;3.30;;;;;;;0.24;93.63;102313.38;6153814;23;20467;-75
2023/01/28 07:00:14;;;;;;;6.18;3.78;;;;;;;0.49;93.27;102355.09;6135737;23;20017;-77
2023/01/28 07:02:41;;;;;;;6.80;4.00;;;;;;;0.25;93.23;102309.94;6147580;23;20534;-76
2023/01/28 07:05:08;;;;;;;3.83;3.53;;;;;;;-0.14;92.13;102238.75;6141483;23;20012;-75
2023/01/28 07:07:34;;;;;;;3.63;3.42;;;;;;;0.13;91.01;102271.88;6166559;23;20533;-76
2023/01/28 07:10:00;;;;;;;3.78;3.47;;;;;;;0.51;90.87;102331.00;6138046;23;20017;-76
2023/01/28 07:12:27;;;;;;;3.50;3.30;;;;;;;-0.14;91.24;102225.84;6120130;23;20699;-77
2023/01/28 07:14:53;;;;;;;5.40;3.95;;;;;;;-0.49;90.51;102160.75;6166303;23;20634;-76
2023/01/28 07:17:19;;;;;;;3.05;2.95;;;;;;;0.04;90.94;102265.69;6145946;23;20513;-75
2023/01/28 07:19:46;;;;;;;3.33;3.13;;;;;;;0.09;92.19;102307.94;6167249;23;20025;-74
2023/01/28 07:22:15;;;;;;;3.10;3.00;;;;;;;0.45;92.52;102327.47;6136526;23;20141;-75
2023/01/28 07:24:41;;;;;;;3.60;3.40;;;;;;;-0.21;93.30;102216.25;6163268;23;20017;-73
2023/01/28 07:27:07;;;;;;;3.75;3.55;;;;;;;-0.02;94.14;102264.75;6142331;23;20138;-74
2023/01/28 07:29:34;;;;;;;4.65;4.22;;;;;;;0.10;94.56;102287.31;6148952;23;20557;-73
2023/01/28 07:32:01;;;;;;;2.80;2.70;;;;;;;-0.08;93.59;102256.03;6146689;23;20095;-73
2023/01/28 07:34:27;;;;;;;3.30;3.10;;;;;;;-0.10;92.70;102257.72;6112833;23;20044;-73
2023/01/28 07:36:53;;;;;;;2.50;2.40;;;;;;;0.08;91.34;102280.38;6148991;23;20020;-73
2023/01/28 07:39:22;;;;;;;4.63;3.45;;;;;;;-0.18;91.06;102234.38;6136662;23;20200;-73
2023/01/28 07:41:49;;;;;;;3.78;3.58;;;;;;;-0.03;90.39;102260.41;6115595;23;20021;-73
2023/01/28 07:44:15;;;;;;;4.07;3.78;;;;;;;0.39;89.63;102317.91;6169613;23;20020;-72
2023/01/28 07:46:41;;;;;;;4.15;3.42;;;;;;;0.35;88.58;102319.56;6122412;23;20028;-74
2023/01/28 07:49:08;;;;;;;3.28;3.08;;;;;;;0.30;89.20;102308.31;6121133;23;20048;-73
2023/01/28 07:51:34;;;;;;;4.07;3.78;;;;;;;0.27;89.15;102302.22;6144343;23;20087;-73
2023/01/28 07:54:01;;;;;;;3.72;3.53;;;;;;;0.34;89.04;102316.94;6153412;23;20079;-74
2023/01/28 07:56:30;;;;;;;3.00;2.90;;;;;;;0.36;89.25;102330.75;6142374;23;20145;-72
2023/01/28 07:58:56;;;;;;;4.35;3.97;;;;;;;-1.26;88.95;102059.75;6112264;23;20514;-73
2023/01/28 08:01:23;;;;;;;4.00;3.80;;;;;;;0.36;89.66;102326.47;6174518;23;20029;-73
2023/01/28 08:03:49;;;;;;;3.15;3.05;;;;;;;-0.97;89.38;102095.47;6147940;23;20032;-73
2023/01/28 08:06:16;;;;;;;4.07;3.70;;;;;;;-0.81;90.50;102117.25;6139717;23;20088;-74
2023/01/28 08:08:42;;;;;;;3.78;3.22;;;;;;;-0.47;89.98;102187.44;6158622;23;20026;-74
2023/01/28 08:11:09;;;;;;;3.58;3.38;;;;;;;0.29;90.24;102319.47;6143835;23;20033;-72
2023/01/28 08:13:36;;;;;;;2.85;2.72;;;;;;;-0.16;89.67;102271.41;6155469;23;20033;-73
2023/01/28 08:16:02;;;;;;;5.13;3.55;;;;;;;0.48;89.69;102346.47;6145076;23;20515;-73
2023/01/28 08:18:29;;;;;;;3.20;3.00;;;;;;;0.32;89.31;102316.94;6161887;23;20009;-74
2023/01/28 08:20:56;;;;;;;3.78;3.58;;;;;;;0.44;88.26;102341.22;6144357;23;20086;-74
2023/01/28 08:23:25;;;;;;;3.97;3.67;;;;;;;-0.71;86.27;102151.78;6159456;23;20029;-74
2023/01/28 08:25:52;;;;;;;4.95;4.72;;;;;;;0.50;85.77;102338.72;6136943;23;20008;-74
2023/01/28 08:28:20;;;;;;;3.42;3.22;;;;;;;0.57;85.16;102332.81;6137184;23;20041;-73
2023/01/28 08:30:46;;;;;;;3.85;3.65;;;;;;;0.36;83.77;102294.59;6136659;23;20019;-73
2023/01/28 08:33:15;;;;;;;4.35;3.95;;;;;;;0.11;83.61;102237.41;6129344;23;20040;-72
2023/01/28 08:35:41;;;;;;;3.03;2.92;;;;;;;0.45;82.88;102289.59;6132361;23;20035;-72
2023/01/28 08:38:10;;;;;;;4.30;4.03;;;;;;;0.55;82.27;102282.84;6144964;23;20099;-73
2023/01/28 08:40:37;;;;;;;5.97;4.35;;;;;;;0.17;82.73;102219.44;6166668;23;20020;-73
2023/01/28 08:43:03;;;;;;;3.38;3.17;;;;;;;-0.01;84.10;102216.59;6140882;23;20363;-72
2023/01/28 08:45:30;;;;;;;4.65;4.03;;;;;;;0.60;83.48;102361.28;6167467;23;20036;-72
2023/01/28 08:48:00;;;;;;;4.40;4.07;;;;;;;-0.11;82.39;102196.63;6142049;23;20025;-73
2023/01/28 08:50:31;;;;;;;3.97;3.75;;;;;;;0.26;82.12;102262.63;6163820;23;20032;-72
2023/01/28 08:53:00;;;;;;;3.65;3.45;;;;;;;0.67;82.89;102311.44;6139782;23;20041;-73
2023/01/28 08:55:27;;;;;;;4.72;4.40;;;;;;;0.29;82.71;102260.06;6137371;23;20526;-73
2023/01/28 08:57:53;;;;;;;3.30;3.10;;;;;;;0.05;81.65;102208.94;6165214;23;20060;-72
2023/01/28 09:00:22;;;;;;;4.22;3.95;;;;;;;0.81;82.20;102321.13;6141783;23;20054;-73
2023/01/28 09:02:52;;;;;;;3.88;3.58;;;;;;;0.79;81.86;102321.09;6140572;23;20525;-73
2023/01/28 09:05:19;;;;;;;3.85;3.65;;;;;;;0.30;81.83;102248.03;6163415;23;20048;-73
2023/01/28 09:07:46;;;;;;;4.90;4.47;;;;;;;0.58;81.59;102301.84;6132799;23;20025;-71
2023/01/28 09:10:15;;;;;;;5.25;4.90;;;;;;;0.73;81.28;102323.59;6133217;23;20573;-72
2023/01/28 09:12:42;;;;;;;3.50;3.30;;;;;;;0.83;80.28;102325.47;6114670;23;20032;-73
2023/01/28 09:15:10;;;;;;;3.30;3.10;;;;;;;0.81;79.35;102309.06;6164537;23;20020;-72
2023/01/28 09:17:36;;;;;;;4.35;4.00;;;;;;;0.92;79.17;102311.78;6144283;23;20027;-72
2023/01/28 09:20:03;;;;;;;4.35;4.00;;;;;;;0.44;78.46;102238.78;6171822;23;20030;-71
2023/01/28 09:22:31;;;;;;;4.75;4.38;;;;;;;0.50;78.45;102251.81;6141294;23;20033;-73
2023/01/28 09:24:57;;;;;;;4.13;3.92;;;;;;;0.91;78.93;102317.81;6168655;23;20084;-73
2023/01/28 09:27:24;;;;;;;3.58;3.38;;;;;;;0.33;78.99;102236.03;6117915;23;20103;-73
2023/01/28 09:29:50;;;;;;;6.35;4.75;;;;;;;0.73;79.44;102321.88;6165210;23;20039;-72
2023/01/28 09:32:16;;;;;;;3.83;3.63;;;;;;;0.37;79.64;102260.19;6113299;23;20639;-71
2023/01/28 09:34:45;;;;;;;3.80;3.17;;;;;;;0.68;79.75;102330.41;6145455;23;20020;-73
2023/01/28 09:37:12;;;;;;;4.00;3.80;;;;;;;0.21;79.52;102237.56;6140784;23;20019;-72
2023/01/28 09:39:38;;;;;;;4.60;4.20;;;;;;;0.53;79.60;102293.16;6147107;23;20032;-72
2023/01/28 09:42:16;;;;;;;3.25;3.05;;;;;;;0.74;80.08;102326.22;6138369;23;20034;-72
2023/01/28 09:44:55;;;;;;;4.03;3.83;;;;;;;0.81;79.50;102321.13;6164956;23;21717;-73
2023/01/28 09:47:42;;;;;;;3.75;3.55;;;;;;;0.59;79.74;102295.81;6143262;23;20028;-73
2023/01/28 09:50:16;;;;;;;3.90;3.70;;;;;;;0.48;78.49;102253.50;6164304;23;20392;-73
2023/01/28 09:52:44;;;;;;;4.38;4.13;;;;;;;0.89;78.91;102319.50;6139620;23;20025;-72
2023/01/28 09:55:28;;;;;;;3.80;3.60;;;;;;;0.81;78.27;102305.63;6168290;23;20015;-72
2023/01/28 09:57:56;;;;;;;4.82;4.53;;;;;;;0.83;77.71;102311.69;6115341;23;20017;-73
2023/01/28 10:00:36;;;;;;;3.70;3.50;;;;;;;0.72;77.63;102293.41;6118347;23;20085;-75
2023/01/28 10:03:52;;;;;;;3.40;3.20;;;;;;;0.87;78.07;102311.72;6179553;23;20013;-72
2023/01/28 10:06:52;;;;;;;5.28;3.67;;;;;;;0.83;78.06;102317.72;6103522;23;20092;-72
2023/01/28 10:09:26;;;;;;;4.60;4.30;;;;;;;0.82;77.84;102310.78;6134731;23;20013;-72
2023/01/28 10:12:14;;;;;;;4.80;4.50;;;;;;;0.90;77.31;102300.56;6140577;23;20021;-74
2023/01/28 10:14:56;;;;;;;4.47;4.10;;;;;;;0.81;77.59;102292.69;6167251;23;20086;-73
2023/01/28 10:17:30;;;;;;;3.67;3.38;;;;;;;0.86;78.09;102306.53;6143798;23;20029;-72
2023/01/28 10:20:19;;;;;;;4.32;3.90;;;;;;;0.95;79.25;102332.53;6161504;23;20024;-72
2023/01/28 10:23:17;;;;;;;4.53;4.28;;;;;;;0.99;79.13;102329.13;6142761;23;20076;-72
2023/01/28 10:25:47;;;;;;;4.18;3.92;;;;;;;1.09;79.04;102343.06;6105518;23;20075;-72
2023/01/28 10:28:20;;;;;;;5.97;4.25;;;;;;;0.84;78.07;102275.50;6139117;23;20029;-73
2023/01/28 10:30:47;;;;;;;4.93;4.50;;;;;;;0.73;77.25;102235.75;6155075;23;20096;-72
2023/01/28 10:33:23;;;;;;;3.42;3.30;;;;;;;1.02;75.49;102256.78;6132004;23;20602;-73
2023/01/28 10:35:50;;;;;;;5.60;5.00;;;;;;;0.60;74.84;102175.28;6136110;23;20025;-74
2023/01/28 10:38:20;;;;;;;4.05;3.85;;;;;;;1.19;75.80;102272.50;6138021;23;20441;-75
2023/01/28 10:40:47;;;;;;;6.72;5.40;;;;;;;0.46;75.27;102175.13;6142102;23;20025;-72
2023/01/28 10:43:19;;;;;;;5.05;4.05;;;;;;;0.59;75.70;102194.22;6131998;23;20034;-72
2023/01/28 10:46:04;;;;;;;4.13;3.83;;;;;;;0.49;75.66;102189.78;6124279;23;20523;-74
2023/01/28 10:49:01;;;;;;;4.03;3.72;;;;;;;0.85;74.86;102228.16;6140381;23;20984;-73
2023/01/28 10:51:32;;;;;;;4.22;3.90;;;;;;;0.55;74.20;102170.06;6133942;23;20033;-71
2023/01/28 10:53:59;;;;;;;5.25;4.88;;;;;;;0.93;75.48;102244.59;6141073;23;20040;-72
2023/01/28 10:56:30;;;;;;;5.30;4.90;;;;;;;0.52;76.41;102184.63;6130817;23;20028;-74
2023/01/28 10:59:19;;;;;;;3.47;3.28;;;;;;;1.19;76.29;102275.09;6133543;23;20016;-71
2023/01/28 11:01:52;;;;;;;3.85;3.40;;;;;;;0.99;74.92;102225.72;6114883;23;20024;-75
2023/01/28 11:04:31;;;;;;;4.10;3.80;;;;;;;1.43;75.68;102284.84;6113439;23;20025;-74
2023/01/28 11:07:18;;;;;;;5.00;4.47;;;;;;;0.70;75.57;102164.22;6113608;23;20009;-76
2023/01/28 11:09:51;;;;;;;3.97;3.67;;;;;;;1.16;75.57;102250.06;6142152;23;20085;-76
2023/01/28 11:12:22;;;;;;;3.80;3.60;;;;;;;1.36;74.91;102263.25;6146000;23;20149;-72
2023/01/28 11:14:57;;;;;;;4.60;4.30;;;;;;;1.38;74.99;102273.56;6145925;23;20461;-74
2023/01/28 11:17:28;;;;;;;4.07;3.85;;;;;;;0.61;74.27;102151.19;6140235;23;20027;-73
2023/01/28 11:19:57;;;;;;;4.70;4.20;;;;;;;1.06;75.43;102237.00;6173629;23;20091;-72
2023/01/28 11:22:37;;;;;;;5.03;4.63;;;;;;;0.37;74.65;102131.94;6134626;23;20040;-72
2023/01/28 11:25:15;;;;;;;5.88;4.22;;;;;;;-0.06;74.55;102033.28;6173033;23;20083;-73
2023/01/28 11:27:47;;;;;;;7.35;5.70;;;;;;;1.01;74.06;102211.09;6113090;23;20407;-72
2023/01/28 11:30:23;;;;;;;4.57;4.32;;;;;;;1.12;72.99;102199.19;6183085;23;20115;-72
2023/01/28 11:32:59;;;;;;;4.65;4.28;;;;;;;0.68;72.17;102108.19;6156797;23;20032;-73
2023/01/28 11:35:29;;;;;;;4.95;4.65;;;;;;;1.19;72.99;102200.97;6153809;23;20033;-73
2023/01/28 11:37:57;;;;;;;5.15;4.68;;;;;;;0.64;73.73;102125.38;6152427;23;20036;-75
2023/01/28 11:40:24;;;;;;;4.75;4.25;;;;;;;0.96;73.82;102215.34;6154039;23;20035;-73
2023/01/28 11:42:52;;;;;;;3.72;3.47;;;;;;;0.71;74.24;102144.41;6177247;23;20029;-74
2023/01/28 11:45:26;;;;;;;4.85;4.57;;;;;;;0.62;73.66;102128.78;6148461;23;20537;-73
2023/01/28 11:48:17;;;;;;;5.05;4.55;;;;;;;0.67;73.13;102130.59;6169698;23;20103;-73
2023/01/28 11:50:54;;;;;;;4.25;3.92;;;;;;;1.04;73.70;102202.50;6114699;23;20025;-73
2023/01/28 11:53:26;;;;;;;4.35;4.05;;;;;;;1.09;73.72;102206.03;6170082;23;20020;-73
2023/01/28 11:56:08;;;;;;;6.05;5.45;;;;;;;1.03;73.21;102185.28;6144942;23;20024;-72
2023/01/28 11:58:50;;;;;;;4.82;4.38;;;;;;;1.06;73.40;102185.28;6138264;23;20029;-74
2023/01/28 12:01:34;;;;;;;4.15;3.85;;;;;;;1.01;74.62;102190.44;6168618;23;20099;-74
2023/01/28 12:04:21;;;;;;;4.05;3.78;;;;;;;0.94;75.30;102201.53;6141632;23;20077;-72
2023/01/28 12:06:51;;;;;;;4.68;4.28;;;;;;;0.95;75.47;102211.03;6142839;23;20013;-72
2023/01/28 12:09:24;;;;;;;32.40;6.03;;;;;;;0.44;74.44;102094.16;6170935;23;20027;-71
2023/01/28 12:12:13;;;;;;;4.35;3.97;;;;;;;1.06;74.75;102183.56;6115156;23;20032;-74
2023/01/28 12:15:08;;;;;;;5.72;5.10;;;;;;;1.03;74.68;102173.22;6172791;23;20020;-71